createdAt,value
2019-02-12T00:00:39.404Z,985.09
2019-02-12T00:01:49.318Z,985.1
2019-02-12T00:02:59.235Z,985.08
2019-02-12T00:04:09.161Z,985.14
2019-02-12T00:05:19.086Z,985.15
2019-02-12T00:06:29.038Z,985.22
2019-02-12T00:07:38.953Z,985.14
2019-02-12T00:08:48.904Z,985.18
2019-02-12T00:09:58.822Z,985.25
2019-02-12T00:11:08.737Z,985.18
2019-02-12T00:12:18.655Z,985.15
2019-02-12T00:13:28.569Z,985.09
2019-02-12T00:14:38.486Z,985.17
2019-02-12T00:15:48.409Z,985.18
2019-02-12T00:16:58.438Z,985.15
2019-02-12T00:18:08.347Z,985.16
2019-02-12T00:19:18.300Z,985.25
2019-02-12T00:20:28.215Z,985.29
2019-02-12T00:21:40.027Z,985.22
2019-02-12T00:22:50.091Z,985.27
2019-02-12T00:24:00.003Z,985.27
2019-02-12T00:25:09.916Z,985.29
2019-02-12T00:26:19.857Z,985.29
2019-02-12T00:27:29.767Z,985.29
2019-02-12T00:28:39.810Z,985.36
2019-02-12T00:29:49.738Z,985.31
2019-02-12T00:30:59.652Z,985.3
2019-02-12T00:32:09.565Z,985.28
2019-02-12T00:33:19.475Z,985.27
2019-02-12T00:34:29.488Z,985.28
2019-02-12T00:35:39.148Z,985.32
2019-02-12T00:36:49.061Z,985.37
2019-02-12T00:37:58.976Z,985.38
2019-02-12T00:39:08.894Z,985.43
2019-02-12T00:40:18.909Z,985.51
2019-02-12T00:41:28.822Z,985.46
2019-02-12T00:42:38.740Z,985.5
2019-02-12T00:43:48.659Z,985.49
2019-02-12T00:44:58.612Z,985.49
2019-02-12T00:46:08.671Z,985.54
2019-02-12T00:47:18.582Z,985.59
2019-02-12T00:48:28.555Z,985.53
2019-02-12T00:49:38.469Z,985.54
2019-02-12T00:50:48.381Z,985.56
2019-02-12T00:51:58.345Z,985.48
2019-02-12T00:53:08.006Z,985.47
2019-02-12T00:54:17.914Z,985.4
2019-02-12T00:55:29.416Z,985.4
2019-02-12T00:56:39.326Z,985.32
2019-02-12T00:57:49.345Z,985.42
2019-02-12T00:58:59.254Z,985.31
2019-02-12T01:00:09.168Z,985.33
2019-02-12T01:01:19.090Z,985.34
2019-02-12T01:02:29.000Z,985.4
2019-02-12T01:03:39.054Z,985.43
2019-02-12T01:04:48.987Z,985.5
2019-02-12T01:05:58.906Z,985.42
2019-02-12T01:07:08.821Z,985.41
2019-02-12T01:08:18.498Z,985.48
2019-02-12T01:09:28.407Z,985.6
2019-02-12T01:10:38.321Z,985.54
2019-02-12T01:11:48.231Z,985.59
2019-02-12T01:12:58.146Z,985.56
2019-02-12T01:14:08.074Z,985.57
2019-02-12T01:15:18.088Z,985.61
2019-02-12T01:16:28.002Z,985.58
2019-02-12T01:17:37.988Z,985.6
2019-02-12T01:18:47.896Z,985.64
2019-02-12T01:19:57.831Z,985.65
2019-02-12T01:21:07.766Z,985.64
2019-02-12T01:22:17.676Z,985.67
2019-02-12T01:23:27.595Z,985.65
2019-02-12T01:24:37.525Z,985.74
2019-02-12T01:25:47.458Z,985.76
2019-02-12T01:26:57.377Z,985.73
2019-02-12T01:28:07.290Z,985.8
2019-02-12T01:29:17.211Z,985.85
2019-02-12T01:30:27.125Z,985.88
2019-02-12T01:31:37.043Z,985.85
2019-02-12T01:32:47.077Z,985.9
2019-02-12T01:33:57.008Z,985.92
2019-02-12T01:35:06.693Z,985.97
2019-02-12T01:36:16.608Z,985.99
2019-02-12T01:37:26.516Z,985.99
2019-02-12T01:38:36.190Z,986.05
2019-02-12T01:39:46.113Z,986.05
2019-02-12T01:40:56.029Z,986.16
2019-02-12T01:42:05.955Z,986.15
2019-02-12T01:43:15.870Z,986.22
2019-02-12T01:44:25.826Z,986.23
2019-02-12T01:45:35.749Z,986.28
2019-02-12T01:46:45.668Z,986.27
2019-02-12T01:47:55.582Z,986.35
2019-02-12T01:49:05.501Z,986.36
2019-02-12T01:50:15.510Z,986.34
2019-02-12T01:51:25.434Z,986.29
2019-02-12T01:52:42.685Z,986.23
2019-02-12T01:53:52.592Z,986.2
2019-02-12T01:55:02.267Z,986.2
2019-02-12T01:56:12.185Z,986.19
2019-02-12T01:57:22.105Z,986.14
2019-02-12T01:58:32.024Z,986.09
2019-02-12T01:59:41.934Z,986.1
2019-02-12T02:00:51.842Z,986.09
2019-02-12T02:02:01.819Z,986.04
2019-02-12T02:03:11.769Z,986.01
2019-02-12T02:04:21.698Z,986.03
2019-02-12T02:05:31.607Z,986.08
2019-02-12T02:06:41.524Z,986.09
2019-02-12T02:07:51.432Z,986.13
2019-02-12T02:09:01.343Z,986.15
2019-02-12T02:10:11.257Z,986.17
2019-02-12T02:11:21.174Z,986.24
2019-02-12T02:12:31.108Z,986.17
2019-02-12T02:13:41.128Z,986.11
2019-02-12T02:14:51.119Z,986.14
2019-02-12T02:16:01.032Z,986.13
2019-02-12T02:17:10.950Z,986.14
2019-02-12T02:18:20.865Z,986.23
2019-02-12T02:19:30.825Z,986.25
2019-02-12T02:20:40.736Z,986.14
2019-02-12T02:21:50.667Z,986.15
2019-02-12T02:23:00.590Z,986.21
2019-02-12T02:24:10.505Z,986.21
2019-02-12T02:25:20.531Z,986.23
2019-02-12T02:26:30.453Z,986.3
2019-02-12T02:27:40.362Z,986.33
2019-02-12T02:28:50.273Z,986.32
2019-02-12T02:30:00.341Z,986.32
2019-02-12T02:31:10.393Z,986.29
2019-02-12T02:32:20.339Z,986.3
2019-02-12T02:33:30.252Z,986.28
2019-02-12T02:34:40.165Z,986.29
2019-02-12T02:35:50.082Z,986.28
2019-02-12T02:37:00.098Z,986.26
2019-02-12T02:38:10.031Z,986.28
2019-02-12T02:39:19.955Z,986.21
2019-02-12T02:40:29.953Z,986.19
2019-02-12T02:41:39.918Z,986.23
2019-02-12T02:42:49.975Z,986.26
2019-02-12T02:43:59.923Z,986.18
2019-02-12T02:45:09.843Z,986.26
2019-02-12T02:46:19.806Z,986.33
2019-02-12T02:47:29.720Z,986.29
2019-02-12T02:48:39.649Z,986.32
2019-02-12T02:49:49.584Z,986.26
2019-02-12T02:50:59.504Z,986.39
2019-02-12T02:52:09.428Z,986.38
2019-02-12T02:53:19.362Z,986.29
2019-02-12T02:54:29.277Z,986.33
2019-02-12T02:55:39.188Z,986.33
2019-02-12T02:56:49.119Z,986.4
2019-02-12T02:57:59.070Z,986.38
2019-02-12T02:59:08.994Z,986.37
2019-02-12T03:00:18.911Z,986.4
2019-02-12T03:01:28.890Z,986.5
2019-02-12T03:02:38.835Z,986.47
2019-02-12T03:03:48.772Z,986.49
2019-02-12T03:04:58.768Z,986.55
2019-02-12T03:06:08.834Z,986.47
2019-02-12T03:07:18.743Z,986.45
2019-02-12T03:08:28.418Z,986.45
2019-02-12T03:09:38.328Z,986.43
2019-02-12T03:10:48.269Z,986.4
2019-02-12T03:11:59.976Z,986.38
2019-02-12T03:13:09.890Z,986.46
2019-02-12T03:14:19.807Z,986.38
2019-02-12T03:15:29.741Z,986.48
2019-02-12T03:16:39.656Z,986.45
2019-02-12T03:17:49.667Z,986.47
2019-02-12T03:18:59.577Z,986.47
2019-02-12T03:20:09.498Z,986.51
2019-02-12T03:21:19.411Z,986.53
2019-02-12T03:22:29.327Z,986.52
2019-02-12T03:23:39.356Z,986.53
2019-02-12T03:24:49.315Z,986.49
2019-02-12T03:25:59.239Z,986.44
2019-02-12T03:27:09.218Z,986.44
2019-02-12T03:28:18.898Z,986.48
2019-02-12T03:29:28.949Z,986.58
2019-02-12T03:30:38.885Z,986.6
2019-02-12T03:31:48.825Z,986.56
2019-02-12T03:32:58.819Z,986.59
2019-02-12T03:34:08.506Z,986.69
2019-02-12T03:35:18.587Z,986.59
2019-02-12T03:36:28.511Z,986.64
2019-02-12T03:37:38.422Z,986.63
2019-02-12T03:38:48.348Z,986.62
2019-02-12T03:39:58.257Z,986.58
2019-02-12T03:41:08.218Z,986.58
2019-02-12T03:42:18.134Z,986.6
2019-02-12T03:43:28.047Z,986.64
2019-02-12T03:44:37.976Z,986.66
2019-02-12T03:45:47.899Z,986.69
2019-02-12T03:46:57.972Z,986.69
2019-02-12T03:48:07.887Z,986.68
2019-02-12T03:49:17.564Z,986.65
2019-02-12T03:50:27.493Z,986.65
2019-02-12T03:51:37.437Z,986.66
2019-02-12T03:52:47.457Z,986.62
2019-02-12T03:53:57.374Z,986.65
2019-02-12T03:55:07.299Z,986.58
2019-02-12T03:56:17.235Z,986.61
2019-02-12T03:57:27.155Z,986.59
2019-02-12T03:58:37.163Z,986.54
2019-02-12T03:59:47.076Z,986.53
2019-02-12T04:00:56.999Z,986.6
2019-02-12T04:02:06.913Z,986.58
2019-02-12T04:03:16.852Z,986.62
2019-02-12T04:04:26.818Z,986.58
2019-02-12T04:05:36.488Z,986.64
2019-02-12T04:06:46.411Z,986.63
2019-02-12T04:07:56.324Z,986.63
2019-02-12T04:09:06.244Z,986.61
2019-02-12T04:10:16.202Z,986.61
2019-02-12T04:11:26.125Z,986.57
2019-02-12T04:12:36.048Z,986.56
2019-02-12T04:13:45.990Z,986.54
2019-02-12T04:14:55.911Z,986.63
2019-02-12T04:16:05.724Z,986.66
2019-02-12T04:17:15.642Z,986.65
2019-02-12T04:18:25.560Z,986.57
2019-02-12T04:19:35.481Z,986.55
2019-02-12T04:20:45.403Z,986.6
2019-02-12T04:21:55.429Z,986.63
2019-02-12T04:23:05.369Z,986.6
2019-02-12T04:24:15.289Z,986.62
2019-02-12T04:25:25.221Z,986.55
2019-02-12T04:26:34.883Z,986.56
2019-02-12T04:27:44.846Z,986.6
2019-02-12T04:28:55.983Z,986.51
2019-02-12T04:30:05.931Z,986.51
2019-02-12T04:31:15.869Z,986.59
2019-02-12T04:32:25.804Z,986.63
2019-02-12T04:33:35.815Z,986.55
2019-02-12T04:34:45.813Z,986.58
2019-02-12T04:35:55.734Z,986.61
2019-02-12T04:37:05.666Z,986.44
2019-02-12T04:38:15.612Z,986.52
2019-02-12T04:39:25.611Z,986.6
2019-02-12T04:40:35.535Z,986.47
2019-02-12T04:41:45.448Z,986.6
2019-02-12T04:42:55.362Z,986.61
2019-02-12T04:44:05.288Z,986.59
2019-02-12T04:45:15.313Z,986.66
2019-02-12T04:46:25.226Z,986.67
2019-02-12T04:47:35.168Z,986.57
2019-02-12T04:48:45.079Z,986.59
2019-02-12T04:49:55.007Z,986.62
2019-02-12T04:51:05.017Z,986.64
2019-02-12T04:52:14.953Z,986.59
2019-02-12T04:53:34.506Z,986.68
2019-02-12T04:54:44.421Z,986.69
2019-02-12T04:55:54.361Z,986.7
2019-02-12T04:57:04.371Z,986.69
2019-02-12T04:58:14.277Z,986.77
2019-02-12T04:59:24.399Z,986.74
2019-02-12T05:00:34.317Z,986.76
2019-02-12T05:01:44.240Z,986.82
2019-02-12T05:02:54.157Z,986.8
2019-02-12T05:04:04.087Z,986.83
2019-02-12T05:05:14.008Z,986.76
2019-02-12T05:06:23.919Z,986.75
2019-02-12T05:07:33.851Z,986.78
2019-02-12T05:08:43.959Z,986.8
2019-02-12T05:09:53.875Z,986.81
2019-02-12T05:11:03.808Z,986.84
2019-02-12T05:12:13.724Z,986.84
2019-02-12T05:13:23.646Z,986.83
2019-02-12T05:14:33.735Z,986.81
2019-02-12T05:15:43.663Z,986.83
2019-02-12T05:16:53.574Z,986.89
2019-02-12T05:18:03.495Z,986.88
2019-02-12T05:19:13.425Z,986.84
2019-02-12T05:20:23.387Z,986.91
2019-02-12T05:21:33.306Z,986.9
2019-02-12T05:22:43.947Z,986.96
2019-02-12T05:23:53.950Z,986.89
2019-02-12T05:25:04.402Z,986.96
2019-02-12T05:26:14.427Z,986.95
2019-02-12T05:27:24.349Z,986.92
2019-02-12T05:28:34.354Z,986.91
2019-02-12T05:29:44.285Z,986.94
2019-02-12T05:30:54.201Z,986.92
2019-02-12T05:32:04.120Z,986.98
2019-02-12T05:33:14.034Z,987
2019-02-12T05:34:23.964Z,987.02
2019-02-12T05:35:33.891Z,987
2019-02-12T05:36:43.813Z,987.05
2019-02-12T05:37:53.897Z,987.03
2019-02-12T05:39:03.826Z,987.05
2019-02-12T05:40:13.747Z,987.06
2019-02-12T05:41:23.664Z,987.07
2019-02-12T05:42:33.604Z,987.08
2019-02-12T05:43:43.623Z,987.11
2019-02-12T05:44:53.544Z,987.17
2019-02-12T05:46:03.464Z,987.12
2019-02-12T05:47:13.130Z,987.18
2019-02-12T05:48:23.050Z,987.17
2019-02-12T05:49:33.088Z,987.11
2019-02-12T05:50:43.027Z,987.22
2019-02-12T05:51:52.992Z,987.21
2019-02-12T05:53:02.919Z,987.2
2019-02-12T05:54:14.344Z,987.11
2019-02-12T05:55:24.111Z,987.15
2019-02-12T05:56:34.031Z,987.12
2019-02-12T05:57:43.977Z,987.1
2019-02-12T05:58:53.897Z,987.05
2019-02-12T06:00:03.828Z,987.1
2019-02-12T06:01:13.843Z,987.14
2019-02-12T06:02:23.758Z,987.14
2019-02-12T06:03:33.675Z,987.19
2019-02-12T06:04:43.586Z,987.13
2019-02-12T06:05:53.555Z,987.1
2019-02-12T06:07:03.571Z,987.1
2019-02-12T06:08:13.482Z,987.11
2019-02-12T06:09:23.392Z,987.09
2019-02-12T06:10:33.332Z,987.13
2019-02-12T06:11:43.463Z,987.07
2019-02-12T06:12:53.452Z,987.1
2019-02-12T06:14:03.119Z,987.1
2019-02-12T06:15:13.042Z,987.14
2019-02-12T06:16:22.965Z,987.16
2019-02-12T06:17:32.902Z,987.24
2019-02-12T06:18:42.880Z,987.25
2019-02-12T06:19:52.801Z,987.13
2019-02-12T06:21:02.766Z,987.14
2019-02-12T06:22:12.683Z,987.1
2019-02-12T06:23:22.600Z,987.14
2019-02-12T06:24:32.508Z,987.07
2019-02-12T06:25:42.431Z,987.05
2019-02-12T06:26:52.356Z,987.09
2019-02-12T06:28:02.282Z,987.12
2019-02-12T06:29:12.192Z,987.09
2019-02-12T06:30:22.206Z,987.17
2019-02-12T06:31:32.156Z,987.1
2019-02-12T06:32:41.847Z,987.17
2019-02-12T06:33:51.765Z,987.05
2019-02-12T06:35:01.693Z,986.99
2019-02-12T06:36:11.684Z,986.93
2019-02-12T06:37:21.611Z,986.89
2019-02-12T06:38:31.535Z,986.89
2019-02-12T06:39:41.466Z,987.01
2019-02-12T06:40:51.412Z,987.08
2019-02-12T06:42:01.382Z,987.15
2019-02-12T06:43:11.305Z,987.15
2019-02-12T06:44:20.994Z,987.09
2019-02-12T06:45:30.911Z,987.06
2019-02-12T06:46:40.860Z,987.02
2019-02-12T06:47:50.907Z,986.99
2019-02-12T06:49:00.821Z,986.98
2019-02-12T06:50:10.735Z,986.91
2019-02-12T06:51:20.673Z,986.98
2019-02-12T06:52:30.956Z,986.99
2019-02-12T06:53:41.000Z,986.9
2019-02-12T06:54:50.927Z,986.97
2019-02-12T06:56:00.929Z,986.91
2019-02-12T06:57:10.850Z,986.97
2019-02-12T06:58:20.784Z,986.93
2019-02-12T06:59:30.762Z,986.97
2019-02-12T07:00:40.686Z,987.05
2019-02-12T07:01:50.618Z,987.03
2019-02-12T07:03:00.534Z,986.98
2019-02-12T07:04:10.464Z,986.93
2019-02-12T07:05:20.492Z,986.89
2019-02-12T07:06:30.402Z,986.93
2019-02-12T07:07:40.325Z,986.96
2019-02-12T07:08:50.270Z,986.95
2019-02-12T07:10:00.399Z,986.9
2019-02-12T07:11:10.735Z,986.95
2019-02-12T07:12:20.653Z,987.05
2019-02-12T07:13:30.584Z,987
2019-02-12T07:14:40.512Z,986.95
2019-02-12T07:15:50.442Z,986.97
2019-02-12T07:17:00.405Z,987.01
2019-02-12T07:18:10.334Z,987.02
2019-02-12T07:19:20.245Z,987.01
2019-02-12T07:20:30.189Z,986.97
2019-02-12T07:21:40.131Z,987.01
2019-02-12T07:22:50.103Z,987.01
2019-02-12T07:24:00.018Z,987
2019-02-12T07:25:09.935Z,986.92
2019-02-12T07:26:19.853Z,986.96
2019-02-12T07:27:29.774Z,987.02
2019-02-12T07:28:39.759Z,987.02
2019-02-12T07:29:49.666Z,987.02
2019-02-12T07:30:59.596Z,987.07
2019-02-12T07:32:09.558Z,987.15
2019-02-12T07:33:19.494Z,987.25
2019-02-12T07:34:29.515Z,987.21
2019-02-12T07:35:39.444Z,987.2
2019-02-12T07:36:49.398Z,987.17
2019-02-12T07:37:59.383Z,987.22
2019-02-12T07:39:09.303Z,987.3
2019-02-12T07:40:19.321Z,987.29
2019-02-12T07:41:29.231Z,987.23
2019-02-12T07:42:39.145Z,987.26
2019-02-12T07:43:49.073Z,987.3
2019-02-12T07:44:58.747Z,987.26
2019-02-12T07:46:08.863Z,987.29
2019-02-12T07:47:18.777Z,987.24
2019-02-12T07:48:28.701Z,987.19
2019-02-12T07:49:38.621Z,987.17
2019-02-12T07:50:48.567Z,987.17
2019-02-12T07:51:58.545Z,987.14
2019-02-12T07:53:08.477Z,987.14
2019-02-12T07:54:18.156Z,987.17
2019-02-12T07:55:28.089Z,987.22
2019-02-12T07:56:38.022Z,987.25
2019-02-12T07:57:48.040Z,987.25
2019-02-12T07:58:57.974Z,987.26
2019-02-12T08:00:07.887Z,987.23
2019-02-12T08:01:17.807Z,987.32
2019-02-12T08:02:27.723Z,987.29
2019-02-12T08:03:39.194Z,987.29
2019-02-12T08:04:49.109Z,987.25
2019-02-12T08:05:59.060Z,987.29
2019-02-12T08:07:08.986Z,987.3
2019-02-12T08:08:18.904Z,987.3
2019-02-12T08:09:28.917Z,987.27
2019-02-12T08:10:38.848Z,987.28
2019-02-12T08:11:48.769Z,987.24
2019-02-12T08:12:58.692Z,987.23
2019-02-12T08:14:08.602Z,987.24
2019-02-12T08:15:18.644Z,987.21
2019-02-12T08:16:28.578Z,987.25
2019-02-12T08:17:38.513Z,987.28
2019-02-12T08:18:48.437Z,987.26
2019-02-12T08:19:58.387Z,987.26
2019-02-12T08:21:08.364Z,987.27
2019-02-12T08:22:18.291Z,987.2
2019-02-12T08:23:28.220Z,987.24
2019-02-12T08:24:46.361Z,987.19
2019-02-12T08:25:56.288Z,987.23
2019-02-12T08:27:06.367Z,987.21
2019-02-12T08:28:16.295Z,987.25
2019-02-12T08:29:26.240Z,987.21
2019-02-12T08:30:36.166Z,987.22
2019-02-12T08:31:46.101Z,987.2
2019-02-12T08:32:56.123Z,987.26
2019-02-12T08:34:06.039Z,987.31
2019-02-12T08:35:15.952Z,987.3
2019-02-12T08:36:25.885Z,987.32
2019-02-12T08:37:35.818Z,987.36
2019-02-12T08:38:45.762Z,987.33
2019-02-12T08:39:55.548Z,987.33
2019-02-12T08:41:05.700Z,987.34
2019-02-12T08:42:15.629Z,987.39
2019-02-12T08:43:25.574Z,987.34
2019-02-12T08:44:35.555Z,987.32
2019-02-12T08:45:45.246Z,987.35
2019-02-12T08:46:55.181Z,987.34
2019-02-12T08:48:05.098Z,987.3
2019-02-12T08:49:15.040Z,987.25
2019-02-12T08:50:24.967Z,987.28
2019-02-12T08:51:34.882Z,987.3
2019-02-12T08:52:44.801Z,987.28
2019-02-12T08:53:54.778Z,987.25
2019-02-12T08:55:04.722Z,987.27
2019-02-12T08:56:14.770Z,987.31
2019-02-12T08:57:24.691Z,987.28
2019-02-12T08:58:34.608Z,987.3
2019-02-12T08:59:44.526Z,987.31
2019-02-12T09:00:54.448Z,987.35
2019-02-12T09:02:04.523Z,987.34
2019-02-12T09:03:14.441Z,987.34
2019-02-12T09:04:24.360Z,987.34
2019-02-12T09:05:34.291Z,987.33
2019-02-12T09:06:44.231Z,987.34
2019-02-12T09:07:54.205Z,987.34
2019-02-12T09:09:04.136Z,987.36
2019-02-12T09:10:14.121Z,987.43
2019-02-12T09:11:24.065Z,987.4
2019-02-12T09:12:34.038Z,987.38
2019-02-12T09:13:44.071Z,987.35
2019-02-12T09:14:53.992Z,987.41
2019-02-12T09:16:03.924Z,987.38
2019-02-12T09:17:13.871Z,987.35
2019-02-12T09:18:23.796Z,987.38
2019-02-12T09:19:33.833Z,987.36
2019-02-12T09:20:43.771Z,987.33
2019-02-12T09:21:53.715Z,987.33
2019-02-12T09:23:03.658Z,987.27
2019-02-12T09:24:13.591Z,987.24
2019-02-12T09:25:23.617Z,987.21
2019-02-12T09:26:33.551Z,987.22
2019-02-12T09:27:43.476Z,987.15
2019-02-12T09:28:53.398Z,987.19
2019-02-12T09:30:03.326Z,987.17
2019-02-12T09:31:13.325Z,987.14
2019-02-12T09:32:23.018Z,987.18
2019-02-12T09:33:32.939Z,987.21
2019-02-12T09:34:42.861Z,987.18
2019-02-12T09:35:52.779Z,987.17
2019-02-12T09:37:02.725Z,987.18
2019-02-12T09:38:12.652Z,987.19
2019-02-12T09:39:22.577Z,987.15
2019-02-12T09:40:32.497Z,987.14
2019-02-12T09:41:42.417Z,987.16
2019-02-12T09:42:52.400Z,987.2
2019-02-12T09:44:02.321Z,987.24
2019-02-12T09:45:12.240Z,987.23
2019-02-12T09:46:22.161Z,987.27
2019-02-12T09:47:32.078Z,987.26
2019-02-12T09:48:42.112Z,987.34
2019-02-12T09:49:52.047Z,987.33
2019-02-12T09:51:01.723Z,987.32
2019-02-12T09:52:11.663Z,987.31
2019-02-12T09:53:21.600Z,987.28
2019-02-12T09:54:31.616Z,987.31
2019-02-12T09:55:41.535Z,987.31
2019-02-12T09:56:51.503Z,987.32
2019-02-12T09:58:01.430Z,987.29
2019-02-12T09:59:11.366Z,987.32
2019-02-12T10:00:21.292Z,987.28
2019-02-12T10:01:31.220Z,987.29
2019-02-12T10:02:41.165Z,987.29
2019-02-12T10:03:50.844Z,987.36
2019-02-12T10:05:00.776Z,987.39
2019-02-12T10:06:10.754Z,987.38
2019-02-12T10:07:29.820Z,987.36
2019-02-12T10:08:40.119Z,987.39
2019-02-12T10:09:50.050Z,987.36
2019-02-12T10:10:59.967Z,987.39
2019-02-12T10:12:09.983Z,987.35
2019-02-12T10:13:19.915Z,987.37
2019-02-12T10:14:29.835Z,987.32
2019-02-12T10:15:39.763Z,987.3
2019-02-12T10:16:49.691Z,987.25
2019-02-12T10:17:59.603Z,987.28
2019-02-12T10:19:09.546Z,987.29
2019-02-12T10:20:19.594Z,987.27
2019-02-12T10:21:29.543Z,987.27
2019-02-12T10:22:39.213Z,987.25
2019-02-12T10:23:49.265Z,987.2
2019-02-12T10:24:59.211Z,987.18
2019-02-12T10:26:09.145Z,987.15
2019-02-12T10:27:19.066Z,987.16
2019-02-12T10:28:28.983Z,987.13
2019-02-12T10:29:39.020Z,987.15
2019-02-12T10:30:48.994Z,987.13
2019-02-12T10:32:08.182Z,987.14
2019-02-12T10:33:18.285Z,987.16
2019-02-12T10:34:28.234Z,987.12
2019-02-12T10:35:38.207Z,987.1
2019-02-12T10:36:48.148Z,987.1
2019-02-12T10:37:58.072Z,987.14
2019-02-12T10:39:08.003Z,987.11
2019-02-12T10:40:17.945Z,987.08
2019-02-12T10:41:28.005Z,987.08
2019-02-12T10:42:37.923Z,987.11
2019-02-12T10:43:47.839Z,987.07
2019-02-12T10:44:57.759Z,987.04
2019-02-12T10:46:07.938Z,987.01
2019-02-12T10:47:17.955Z,986.98
2019-02-12T10:48:28.555Z,986.89
2019-02-12T10:49:38.476Z,986.96
2019-02-12T10:50:48.417Z,986.92
2019-02-12T10:51:58.338Z,986.98
2019-02-12T10:53:08.925Z,986.97
2019-02-12T10:54:19.965Z,986.93
2019-02-12T10:55:36.197Z,986.97
2019-02-12T10:56:46.119Z,986.95
2019-02-12T10:57:56.107Z,986.93
2019-02-12T10:59:07.019Z,986.91
2019-02-12T11:00:17.359Z,986.89
2019-02-12T11:01:27.275Z,986.86
2019-02-12T11:02:37.190Z,986.85
2019-02-12T11:03:47.109Z,986.84
2019-02-12T11:04:57.130Z,986.82
2019-02-12T11:06:07.050Z,986.82
2019-02-12T11:07:16.972Z,986.79
2019-02-12T11:08:26.888Z,986.82
2019-02-12T11:09:36.808Z,986.8
2019-02-12T11:10:46.476Z,986.78
2019-02-12T11:11:56.396Z,986.79
2019-02-12T11:13:06.317Z,986.78
2019-02-12T11:14:16.236Z,986.81
2019-02-12T11:15:26.155Z,986.78
2019-02-12T11:16:36.175Z,986.75
2019-02-12T11:17:46.106Z,986.72
2019-02-12T11:18:56.021Z,986.68
2019-02-12T11:20:05.940Z,986.63
2019-02-12T11:21:15.868Z,986.65
2019-02-12T11:22:25.838Z,986.64
2019-02-12T11:23:35.756Z,986.6
2019-02-12T11:24:45.671Z,986.61
2019-02-12T11:25:55.587Z,986.64
2019-02-12T11:27:05.511Z,986.61
2019-02-12T11:28:15.489Z,986.56
2019-02-12T11:29:25.411Z,986.56
2019-02-12T11:30:35.704Z,986.57
2019-02-12T11:31:45.624Z,986.48
2019-02-12T11:32:55.545Z,986.49
2019-02-12T11:34:05.562Z,986.48
2019-02-12T11:35:16.792Z,986.42
2019-02-12T11:36:26.708Z,986.45
2019-02-12T11:37:36.638Z,986.43
2019-02-12T11:38:46.555Z,986.41
2019-02-12T11:39:56.575Z,986.38
2019-02-12T11:41:06.246Z,986.36
2019-02-12T11:42:16.162Z,986.33
2019-02-12T11:43:26.086Z,986.34
2019-02-12T11:44:36.001Z,986.31
2019-02-12T11:45:46.020Z,986.31
2019-02-12T11:46:55.942Z,986.24
2019-02-12T11:48:05.862Z,986.23
2019-02-12T11:49:15.779Z,986.21
2019-02-12T11:50:25.725Z,986.19
2019-02-12T11:51:35.739Z,986.16
2019-02-12T11:52:45.408Z,986.08
2019-02-12T11:53:55.327Z,986.08
2019-02-12T11:55:05.243Z,986.02
2019-02-12T11:56:15.173Z,985.97
2019-02-12T11:57:25.166Z,985.99
2019-02-12T11:58:35.088Z,985.98
2019-02-12T11:59:45.011Z,985.99
2019-02-12T12:00:55.232Z,986.01
2019-02-12T12:02:05.149Z,986
2019-02-12T12:03:15.165Z,986
2019-02-12T12:04:25.083Z,986.01
2019-02-12T12:05:35.001Z,986.04
2019-02-12T12:06:44.931Z,986.02
2019-02-12T12:07:54.847Z,986.02
2019-02-12T12:09:04.873Z,986.06
2019-02-12T12:10:14.793Z,986.04
2019-02-12T12:11:24.727Z,986.01
2019-02-12T12:12:34.650Z,985.99
2019-02-12T12:13:44.576Z,985.95
2019-02-12T12:14:54.547Z,985.96
2019-02-12T12:16:04.467Z,986
2019-02-12T12:17:14.394Z,985.98
2019-02-12T12:18:24.328Z,985.96
2019-02-12T12:19:34.242Z,985.95
2019-02-12T12:20:44.207Z,985.95
2019-02-12T12:21:54.145Z,985.95
2019-02-12T12:23:04.072Z,985.88
2019-02-12T12:24:13.994Z,985.91
2019-02-12T12:25:23.910Z,985.91
2019-02-12T12:26:33.890Z,985.87
2019-02-12T12:27:43.812Z,985.89
2019-02-12T12:28:53.741Z,985.86
2019-02-12T12:30:03.662Z,985.85
2019-02-12T12:31:13.590Z,985.81
2019-02-12T12:32:23.611Z,985.83
2019-02-12T12:33:33.530Z,985.81
2019-02-12T12:34:43.449Z,985.74
2019-02-12T12:35:53.401Z,985.83
2019-02-12T12:37:03.328Z,985.82
2019-02-12T12:38:13.296Z,985.79
2019-02-12T12:39:23.236Z,985.78
2019-02-12T12:40:33.159Z,985.73
2019-02-12T12:41:43.074Z,985.76
2019-02-12T12:42:52.988Z,985.69
2019-02-12T12:44:03.044Z,985.67
2019-02-12T12:45:13.008Z,985.71
2019-02-12T12:46:22.431Z,985.7
2019-02-12T12:47:32.122Z,985.68
2019-02-12T12:48:42.037Z,985.65
2019-02-12T12:49:52.015Z,985.67
2019-02-12T12:51:02.111Z,985.59
2019-02-12T12:52:12.036Z,985.56
2019-02-12T12:53:22.020Z,985.54
2019-02-12T12:54:31.944Z,985.6
2019-02-12T12:55:41.970Z,985.55
2019-02-12T12:56:51.898Z,985.56
2019-02-12T12:58:01.871Z,985.54
2019-02-12T12:59:11.541Z,985.62
2019-02-12T13:00:21.459Z,985.58
2019-02-12T13:01:31.486Z,985.52
2019-02-12T13:02:41.434Z,985.55
2019-02-12T13:03:51.400Z,985.54
2019-02-12T13:05:02.667Z,985.48
2019-02-12T13:06:13.963Z,985.47
2019-02-12T13:07:25.350Z,985.44
2019-02-12T13:08:35.338Z,985.41
2019-02-12T13:09:46.813Z,985.4
2019-02-12T13:10:56.478Z,985.41
2019-02-12T13:12:06.393Z,985.35
2019-02-12T13:13:16.960Z,985.36
2019-02-12T13:14:26.937Z,985.26
2019-02-12T13:15:38.603Z,985.31
2019-02-12T13:16:48.531Z,985.34
2019-02-12T13:17:58.467Z,985.39
2019-02-12T13:19:09.893Z,985.29
2019-02-12T13:20:19.809Z,985.31
2019-02-12T13:21:29.724Z,985.29
2019-02-12T13:22:39.645Z,985.33
2019-02-12T13:23:49.598Z,985.29
2019-02-12T13:25:08.110Z,985.31
2019-02-12T13:26:18.477Z,985.3
2019-02-12T13:27:28.397Z,985.35
2019-02-12T13:28:38.318Z,985.32
2019-02-12T13:29:48.233Z,985.33
2019-02-12T13:30:58.212Z,985.29
2019-02-12T13:32:08.130Z,985.31
2019-02-12T13:33:18.049Z,985.22
2019-02-12T13:34:29.465Z,985.25
2019-02-12T13:35:39.378Z,985.22
2019-02-12T13:36:49.297Z,985.17
2019-02-12T13:37:59.212Z,985.17
2019-02-12T13:39:09.163Z,985.1
2019-02-12T13:40:19.091Z,985.08
2019-02-12T13:41:29.010Z,985.04
2019-02-12T13:42:38.987Z,985.06
2019-02-12T13:43:50.103Z,985.01
2019-02-12T13:45:00.018Z,984.98
2019-02-12T13:46:09.937Z,984.95
2019-02-12T13:47:19.921Z,984.9
2019-02-12T13:48:29.947Z,984.93
2019-02-12T13:49:39.874Z,984.92
2019-02-12T13:50:49.793Z,984.87
2019-02-12T13:51:59.722Z,984.89
2019-02-12T13:53:09.648Z,984.88
2019-02-12T13:54:19.672Z,984.83
2019-02-12T13:55:29.585Z,984.86
2019-02-12T13:56:39.516Z,984.82
2019-02-12T13:57:49.431Z,984.79
2019-02-12T13:58:59.364Z,984.78
2019-02-12T14:00:09.378Z,984.78
2019-02-12T14:01:19.310Z,984.78
2019-02-12T14:02:29.242Z,984.76
2019-02-12T14:03:39.176Z,984.79
2019-02-12T14:04:49.461Z,984.76
2019-02-12T14:05:59.492Z,984.79
2019-02-12T14:07:09.401Z,984.79
2019-02-12T14:08:19.344Z,984.71
2019-02-12T14:09:29.287Z,984.76
2019-02-12T14:10:39.203Z,984.74
2019-02-12T14:11:49.228Z,984.68
2019-02-12T14:12:59.141Z,984.67
2019-02-12T14:14:09.081Z,984.63
2019-02-12T14:15:19.986Z,984.58
2019-02-12T14:16:29.907Z,984.58
2019-02-12T14:17:39.871Z,984.56
2019-02-12T14:18:49.802Z,984.55
2019-02-12T14:19:59.721Z,984.55
2019-02-12T14:21:09.638Z,984.52
2019-02-12T14:22:19.553Z,984.54
2019-02-12T14:23:29.571Z,984.52
2019-02-12T14:24:39.496Z,984.49
2019-02-12T14:25:49.431Z,984.52
2019-02-12T14:26:59.348Z,984.48
2019-02-12T14:28:09.264Z,984.44
2019-02-12T14:29:19.280Z,984.43
2019-02-12T14:30:29.225Z,984.38
2019-02-12T14:31:39.173Z,984.39
2019-02-12T14:32:57.963Z,984.35
2019-02-12T14:34:07.875Z,984.32
2019-02-12T14:35:17.792Z,984.3
2019-02-12T14:36:27.455Z,984.34
2019-02-12T14:37:37.376Z,984.29